Accueil
METAR-TAF:

METAR-TAF

Aéroports :

Londres-Heathrow, Angleterre

Aéroport de Londres-Heathrow

latitude: 51-29N, longitude: 000-27W, altitude: 24 m

Observation

Le bulletin a été fait il y a 18 minutes, à 18:20 UTC
Vent 9 kt de ouest
Température 20°C
Humidité 68%
Pression 1023 hPa
Visibilité 10 km ou plus
Quelques nuages à une hauteur de 2900 ft

METAR: EGLL 231820Z AUTO 26009KT 9999 FEW029 20/14 Q1023

Heure: 19:38 (18:38 UTC)

Prévision

Le bulletin a été fait il y a 1 heure et 42 minutes, à 16:56 UTC
Prévision valable du 23 à 18 UTC au 24 à 24 UTC
Vent 6 kt de ouest
Visibilité 10 km ou plus
Nuages épars à une hauteur de 3000 ft
Probabilité 30% :
Temporairement
du 24 à 04 UTC au 24 à 07 UTC
Visibilité: 8000 m

TAF: EGLL 231656Z 2318/2424 26006KT 9999 SCT030 PROB30 TEMPO 2404/2407 8000

Observations et prévisions météorologiques de plus de 4000 aéroports (messages METAR et TAF).

Les stations disponibles sont représentées par des disques jaunes et rouges sur la carte.

Passer la souris dessus pour voir le nom de la station.

Cliquer dessus pour voir les observations et prévisions météorologiques.

Pour changer de carte: cliquez sur les boutons verts avec une croix noire pour zoomer, sur le bouton vert avec un tiret pour effectuer un zoom arrière, ou sur les flèches vertes pour les cartes adjacentes.


METAR-TAF: